Colon, North Carolina
Current Conditions -  °F | °C
As of 1:55 AM on Thursday 27 Nov 2014 (Local Time) from KTTA Reporting Station
Overcast Overcast  
Wind Chill: 38°   Ceiling: 3800
Heat Index: 38°   Visibility: 10mi
Dew Point: 38°   Wind: 0mph
Humidity: 100%   Direction: NA
Pressure: 30.05"   Gusts: NA
Location:  35.493°N, 79.1765°W
Report Text: KTTA 270655Z AUTO 00000KT 10SM OVC038 03/03 A3005 RMK AO2 T00310031
Loading
Personal Weather Stations






























Interactive Weather Map New forecast layout! Learn more

10-Day Weather Forecast

Advertisements
Track Severe Weather on mobile